Time;durP1;ratioP1;P1;durP2;ratioP2;P2;SDS_P1;SDS_P2;PMS_P1;PMS_P2;Temp;Humidity;BMP_temperature;BMP_pressure;BME280_temperature;BME280_humidity;BME280_pressure;Samples;Min_cycle;Max_cycle;Signal;HPM_P1;HPM_P2
2021/09/11 00:02:11;;;;;;;13.32;5.80;;;;;;;;;;4939185;29;20119;-76
2021/09/11 00:04:37;;;;;;;10.55;5.45;;;;;;;;;;4940425;29;20523;-77
2021/09/11 00:07:03;;;;;;;12.45;7.00;;;;;;;;;;4937257;29;20059;-77
2021/09/11 00:09:28;;;;;;;15.40;7.15;;;;;;;;;;4942615;28;20074;-77
2021/09/11 00:11:54;;;;;;;14.98;7.72;;;;;;;;;;4946054;28;20462;-79
2021/09/11 00:14:19;;;;;;;20.20;8.80;;;;;;;;;;4944538;29;20094;-77
2021/09/11 00:16:44;;;;;;;15.93;7.47;;;;;;;;;;4945657;29;20079;-77
2021/09/11 00:19:10;;;;;;;15.60;7.90;;;;;;;;;;4942543;28;20433;-77
2021/09/11 00:21:35;;;;;;;21.98;6.82;;;;;;;;;;4941104;29;20058;-77
2021/09/11 00:24:01;;;;;;;16.63;7.32;;;;;;;;;;4949309;29;20035;-77
2021/09/11 00:26:26;;;;;;;18.10;6.38;;;;;;;;;;4940313;28;20065;-77
2021/09/11 00:28:52;;;;;;;12.13;6.80;;;;;;;;;;4942407;28;20053;-76
2021/09/11 00:31:18;;;;;;;9.60;5.68;;;;;;;;;;4946058;28;20035;-76
2021/09/11 00:33:43;;;;;;;13.30;6.53;;;;;;;;;;4942904;29;20148;-76
2021/09/11 00:36:09;;;;;;;9.98;5.80;;;;;;;;;;4934171;29;20035;-76
2021/09/11 00:38:34;;;;;;;12.70;5.80;;;;;;;;;;4943166;29;20093;-76
2021/09/11 00:41:00;;;;;;;12.85;5.30;;;;;;;;;;4946027;28;20533;-77
2021/09/11 00:43:27;;;;;;;17.40;5.75;;;;;;;;;;4945304;29;20027;-76
2021/09/11 00:45:53;;;;;;;11.30;5.60;;;;;;;;;;4961642;28;20044;-76
2021/09/11 00:48:18;;;;;;;15.57;5.50;;;;;;;;;;4941847;29;20401;-76
2021/09/11 00:50:45;;;;;;;11.60;5.57;;;;;;;;;;4948869;29;20090;-76
2021/09/11 00:53:12;;;;;;;11.50;5.47;;;;;;;;;;4946296;29;20046;-77
2021/09/11 00:55:38;;;;;;;9.45;4.88;;;;;;;;;;4945851;28;20246;-77
2021/09/11 00:58:04;;;;;;;10.23;4.82;;;;;;;;;;4941321;28;20115;-76
2021/09/11 01:00:29;;;;;;;10.23;5.00;;;;;;;;;;4943061;29;20031;-76
2021/09/11 01:02:55;;;;;;;12.60;5.82;;;;;;;;;;4941745;28;20036;-77
2021/09/11 01:05:20;;;;;;;11.98;5.35;;;;;;;;;;4947995;28;20147;-77
2021/09/11 01:07:46;;;;;;;10.35;4.57;;;;;;;;;;4940201;28;20027;-76
2021/09/11 01:10:12;;;;;;;9.55;4.65;;;;;;;;;;4933797;29;20497;-76
2021/09/11 01:12:39;;;;;;;14.07;4.82;;;;;;;;;;4938483;29;20089;-76
2021/09/11 01:15:07;;;;;;;12.23;4.35;;;;;;;;;;4944255;29;20039;-77
2021/09/11 01:17:32;;;;;;;10.98;4.13;;;;;;;;;;4954005;28;20242;-77
2021/09/11 01:19:58;;;;;;;12.10;4.05;;;;;;;;;;4946028;29;20035;-77
2021/09/11 01:22:23;;;;;;;11.85;4.45;;;;;;;;;;4938484;28;20035;-77
2021/09/11 01:24:59;;;;;;;16.60;4.40;;;;;;;;;;4939017;29;20042;-78
2021/09/11 01:27:27;;;;;;;7.22;3.38;;;;;;;;;;4944003;29;20078;-79
2021/09/11 01:29:55;;;;;;;15.10;4.63;;;;;;;;;;4945345;28;20039;-77
2021/09/11 01:32:21;;;;;;;11.75;4.57;;;;;;;;;;4946479;29;20037;-78
2021/09/11 01:34:47;;;;;;;8.63;4.47;;;;;;;;;;4948830;28;20039;-77
2021/09/11 01:37:14;;;;;;;11.05;4.55;;;;;;;;;;4941942;28;20098;-77
2021/09/11 01:39:40;;;;;;;7.05;3.85;;;;;;;;;;4944356;28;20041;-79
2021/09/11 01:42:05;;;;;;;11.93;4.82;;;;;;;;;;4942230;28;20043;-78
2021/09/11 01:44:31;;;;;;;10.25;3.80;;;;;;;;;;4943800;28;20027;-76
2021/09/11 01:46:56;;;;;;;9.98;4.60;;;;;;;;;;4944046;28;20035;-77
2021/09/11 01:49:22;;;;;;;10.80;4.53;;;;;;;;;;4942595;28;20116;-77
2021/09/11 01:51:47;;;;;;;12.05;5.18;;;;;;;;;;4941319;29;20537;-78
2021/09/11 01:54:13;;;;;;;11.05;4.95;;;;;;;;;;4944345;28;20449;-78
2021/09/11 01:56:39;;;;;;;13.35;4.95;;;;;;;;;;4946024;28;20030;-77
2021/09/11 01:59:04;;;;;;;10.50;4.70;;;;;;;;;;4938921;29;20650;-81
2021/09/11 02:01:30;;;;;;;13.40;4.60;;;;;;;;;;4936816;29;20051;-79
2021/09/11 02:03:55;;;;;;;17.77;5.13;;;;;;;;;;4945970;28;20399;-78
2021/09/11 02:06:21;;;;;;;16.25;4.78;;;;;;;;;;4939277;28;20060;-80
2021/09/11 02:08:47;;;;;;;11.02;5.72;;;;;;;;;;4928711;29;20039;-78
2021/09/11 02:11:13;;;;;;;11.93;4.63;;;;;;;;;;4941319;29;20559;-80
2021/09/11 02:13:39;;;;;;;12.98;4.82;;;;;;;;;;4943497;28;20085;-78
2021/09/11 02:16:05;;;;;;;13.30;5.25;;;;;;;;;;4944620;28;20075;-80
2021/09/11 02:18:31;;;;;;;16.10;4.68;;;;;;;;;;4937200;28;20028;-80
2021/09/11 02:20:56;;;;;;;12.65;4.80;;;;;;;;;;4943130;29;20043;-78
2021/09/11 02:23:23;;;;;;;9.27;5.07;;;;;;;;;;4938147;29;20050;-78
2021/09/11 02:25:50;;;;;;;10.07;4.72;;;;;;;;;;4943240;28;20038;-80
2021/09/11 02:28:15;;;;;;;13.95;4.95;;;;;;;;;;4958383;28;20042;-79
2021/09/11 02:30:43;;;;;;;9.13;4.32;;;;;;;;;;4947073;29;20027;-77
2021/09/11 02:33:09;;;;;;;9.38;4.88;;;;;;;;;;4938731;28;20039;-78
2021/09/11 02:35:34;;;;;;;17.80;5.32;;;;;;;;;;4934237;29;20412;-79
2021/09/11 02:38:00;;;;;;;10.25;5.63;;;;;;;;;;4937898;29;20035;-77
2021/09/11 02:40:25;;;;;;;8.10;5.03;;;;;;;;;;4936838;29;20122;-79
2021/09/11 02:42:51;;;;;;;14.82;5.75;;;;;;;;;;4945034;28;20048;-78
2021/09/11 02:45:16;;;;;;;15.57;5.85;;;;;;;;;;4928640;29;20043;-77
2021/09/11 02:47:42;;;;;;;16.23;6.82;;;;;;;;;;4943034;29;20055;-77
2021/09/11 02:50:07;;;;;;;9.68;6.10;;;;;;;;;;4938144;29;20070;-79
2021/09/11 02:52:33;;;;;;;13.80;6.43;;;;;;;;;;4937686;29;20044;-78
2021/09/11 02:54:58;;;;;;;11.88;6.25;;;;;;;;;;4935594;29;20126;-77
2021/09/11 02:57:24;;;;;;;13.80;7.05;;;;;;;;;;4942688;29;20588;-79
2021/09/11 02:59:49;;;;;;;18.75;7.63;;;;;;;;;;4940545;29;20051;-78
2021/09/11 03:02:15;;;;;;;16.92;7.50;;;;;;;;;;4937784;29;20524;-77
2021/09/11 03:04:40;;;;;;;13.95;6.78;;;;;;;;;;4942596;28;20043;-77
2021/09/11 03:07:06;;;;;;;14.80;6.57;;;;;;;;;;4940382;29;20163;-80
2021/09/11 03:09:31;;;;;;;18.92;7.53;;;;;;;;;;4937615;28;20063;-78
2021/09/11 03:11:56;;;;;;;15.07;6.82;;;;;;;;;;4942278;28;20028;-77
2021/09/11 03:14:22;;;;;;;14.45;6.47;;;;;;;;;;4938883;29;20048;-77
2021/09/11 03:16:47;;;;;;;14.82;5.60;;;;;;;;;;4941228;28;20046;-80
2021/09/11 03:19:13;;;;;;;13.95;6.28;;;;;;;;;;4946515;28;20043;-77
2021/09/11 03:21:38;;;;;;;9.68;5.70;;;;;;;;;;4945966;29;20099;-77
2021/09/11 03:24:04;;;;;;;13.98;5.43;;;;;;;;;;4948242;29;20039;-76
2021/09/11 03:26:29;;;;;;;10.38;5.07;;;;;;;;;;4951568;29;20041;-77
2021/09/11 03:28:55;;;;;;;10.98;6.95;;;;;;;;;;4942715;28;20039;-77
2021/09/11 03:31:20;;;;;;;12.13;5.55;;;;;;;;;;4948435;29;20027;-77
2021/09/11 03:33:46;;;;;;;10.07;5.30;;;;;;;;;;4941020;29;20051;-76
2021/09/11 03:36:11;;;;;;;22.33;6.03;;;;;;;;;;4942474;29;20031;-76
2021/09/11 03:38:37;;;;;;;9.25;5.22;;;;;;;;;;4946126;28;20034;-76
2021/09/11 03:41:02;;;;;;;21.05;5.32;;;;;;;;;;4939979;29;20517;-76
2021/09/11 03:43:28;;;;;;;10.27;4.57;;;;;;;;;;4943775;29;20031;-76
2021/09/11 03:45:53;;;;;;;12.13;5.40;;;;;;;;;;4948219;29;20635;-77
2021/09/11 03:48:19;;;;;;;8.07;4.88;;;;;;;;;;4945074;28;20768;-77
2021/09/11 03:50:44;;;;;;;30.50;6.55;;;;;;;;;;4944644;28;20114;-78
2021/09/11 03:53:10;;;;;;;11.18;4.72;;;;;;;;;;4940781;28;20043;-77
2021/09/11 03:55:35;;;;;;;16.10;4.60;;;;;;;;;;4943555;29;20667;-77
2021/09/11 03:58:01;;;;;;;14.65;5.80;;;;;;;;;;4942770;29;20054;-77
2021/09/11 04:00:26;;;;;;;8.00;4.43;;;;;;;;;;4938590;29;20081;-77
2021/09/11 04:02:52;;;;;;;13.30;4.75;;;;;;;;;;4942537;28;20032;-76
2021/09/11 04:05:17;;;;;;;10.73;4.50;;;;;;;;;;4937436;29;20034;-78
2021/09/11 04:07:43;;;;;;;10.18;4.47;;;;;;;;;;4961659;28;20031;-77
2021/09/11 04:10:09;;;;;;;8.02;4.28;;;;;;;;;;4942663;28;20040;-77
2021/09/11 04:12:34;;;;;;;9.82;5.00;;;;;;;;;;4943097;28;20024;-77
2021/09/11 04:15:00;;;;;;;11.90;5.35;;;;;;;;;;4955542;28;20404;-77
2021/09/11 04:17:25;;;;;;;22.70;5.90;;;;;;;;;;4940020;29;20034;-76
2021/09/11 04:19:51;;;;;;;5.95;4.28;;;;;;;;;;4953313;28;20034;-77
2021/09/11 04:22:16;;;;;;;9.90;5.50;;;;;;;;;;4943747;29;20113;-76
2021/09/11 04:24:42;;;;;;;11.40;4.70;;;;;;;;;;4947452;28;20469;-76
2021/09/11 04:27:07;;;;;;;10.75;4.47;;;;;;;;;;4938904;28;20035;-76
2021/09/11 04:29:33;;;;;;;10.27;5.03;;;;;;;;;;4942693;29;20607;-77
2021/09/11 04:31:58;;;;;;;16.25;5.78;;;;;;;;;;4943959;29;20059;-79
2021/09/11 04:34:24;;;;;;;12.82;6.00;;;;;;;;;;4940155;28;20035;-77
2021/09/11 04:36:49;;;;;;;13.75;5.88;;;;;;;;;;4943042;28;20027;-78
2021/09/11 04:39:14;;;;;;;14.68;6.82;;;;;;;;;;4953012;28;20394;-78
2021/09/11 04:41:40;;;;;;;18.98;7.03;;;;;;;;;;4946463;28;20037;-77
2021/09/11 04:44:05;;;;;;;14.77;6.53;;;;;;;;;;4937828;28;20090;-78
2021/09/11 04:46:31;;;;;;;15.25;6.25;;;;;;;;;;4941892;28;20031;-77
2021/09/11 04:48:56;;;;;;;13.95;6.65;;;;;;;;;;4922057;28;20070;-78
2021/09/11 04:51:22;;;;;;;14.40;6.75;;;;;;;;;;4943038;28;20063;-76
2021/09/11 04:53:48;;;;;;;15.98;7.07;;;;;;;;;;4940027;29;20032;-78
2021/09/11 04:56:14;;;;;;;19.38;7.38;;;;;;;;;;4944812;28;20627;-77
2021/09/11 04:58:39;;;;;;;13.93;6.45;;;;;;;;;;4942789;28;20051;-77
2021/09/11 05:01:05;;;;;;;18.70;6.68;;;;;;;;;;4941512;28;20155;-77
2021/09/11 05:03:30;;;;;;;18.17;6.57;;;;;;;;;;4943789;29;20039;-77
2021/09/11 05:05:56;;;;;;;15.63;7.85;;;;;;;;;;4948809;28;20114;-77
2021/09/11 05:08:22;;;;;;;24.30;9.15;;;;;;;;;;4950279;28;20031;-79
2021/09/11 05:10:47;;;;;;;15.80;8.27;;;;;;;;;;4942527;29;20050;-76
2021/09/11 05:13:13;;;;;;;20.67;9.77;;;;;;;;;;4944945;29;20035;-77
2021/09/11 05:15:39;;;;;;;20.95;9.57;;;;;;;;;;4941900;28;20035;-78
2021/09/11 05:18:04;;;;;;;17.30;8.77;;;;;;;;;;4943568;28;20046;-78
2021/09/11 05:20:30;;;;;;;24.58;8.93;;;;;;;;;;4939263;29;20114;-77
2021/09/11 05:22:55;;;;;;;14.25;7.68;;;;;;;;;;4937756;28;20576;-77
2021/09/11 05:25:21;;;;;;;17.33;8.20;;;;;;;;;;4940975;29;20120;-77
2021/09/11 05:27:46;;;;;;;19.98;8.75;;;;;;;;;;4944622;29;20035;-77
2021/09/11 05:30:12;;;;;;;15.80;7.93;;;;;;;;;;4944494;29;20088;-79
2021/09/11 05:32:37;;;;;;;18.25;7.90;;;;;;;;;;4940982;29;20070;-77
2021/09/11 05:35:03;;;;;;;13.65;7.07;;;;;;;;;;4937261;29;20066;-77
2021/09/11 05:37:29;;;;;;;13.65;6.22;;;;;;;;;;4923219;29;20032;-78
2021/09/11 05:39:54;;;;;;;25.80;6.72;;;;;;;;;;4940770;28;20528;-77
2021/09/11 05:42:19;;;;;;;13.68;6.35;;;;;;;;;;4939675;29;20039;-77
2021/09/11 05:44:45;;;;;;;16.35;5.78;;;;;;;;;;4940922;29;20440;-77
2021/09/11 05:47:11;;;;;;;11.43;5.78;;;;;;;;;;4934948;29;20034;-78
2021/09/11 05:49:36;;;;;;;16.23;6.78;;;;;;;;;;4944277;28;20119;-78
2021/09/11 05:52:02;;;;;;;14.82;6.70;;;;;;;;;;4944655;28;20055;-77
2021/09/11 05:54:27;;;;;;;17.48;6.53;;;;;;;;;;4938680;29;20745;-78
2021/09/11 05:56:53;;;;;;;14.95;7.43;;;;;;;;;;4945155;28;20070;-77
2021/09/11 05:59:18;;;;;;;18.70;6.72;;;;;;;;;;4932870;29;20039;-77
2021/09/11 06:01:43;;;;;;;17.00;6.70;;;;;;;;;;4934386;29;20046;-76
2021/09/11 06:04:09;;;;;;;14.38;6.40;;;;;;;;;;4939977;29;20038;-76
2021/09/11 06:06:36;;;;;;;22.67;6.35;;;;;;;;;;4939708;29;20118;-77
2021/09/11 06:09:02;;;;;;;25.10;6.88;;;;;;;;;;4938293;28;20470;-76
2021/09/11 06:11:27;;;;;;;20.05;7.45;;;;;;;;;;4942680;29;20082;-77
2021/09/11 06:13:52;;;;;;;24.67;8.65;;;;;;;;;;4943137;29;20031;-77
2021/09/11 06:16:18;;;;;;;16.30;6.60;;;;;;;;;;4944623;28;20043;-78
2021/09/11 06:18:43;;;;;;;22.50;7.55;;;;;;;;;;4948281;28;20030;-78
2021/09/11 06:21:09;;;;;;;23.77;8.50;;;;;;;;;;4943654;28;20741;-77
2021/09/11 06:23:34;;;;;;;23.63;8.25;;;;;;;;;;4943592;29;20039;-77
2021/09/11 06:26:00;;;;;;;31.23;10.50;;;;;;;;;;4941269;28;20035;-76
2021/09/11 06:28:27;;;;;;;25.23;11.15;;;;;;;;;;4942975;28;20043;-76
2021/09/11 06:30:52;;;;;;;29.52;12.82;;;;;;;;;;4944528;29;20043;-76
2021/09/11 06:33:18;;;;;;;29.65;11.77;;;;;;;;;;4941421;29;20051;-76
2021/09/11 06:35:43;;;;;;;31.27;12.25;;;;;;;;;;4941574;28;20035;-77
2021/09/11 06:38:09;;;;;;;29.48;11.85;;;;;;;;;;4944722;28;20042;-77
2021/09/11 06:40:34;;;;;;;33.78;13.13;;;;;;;;;;4945038;29;20044;-77
2021/09/11 06:43:00;;;;;;;22.58;11.45;;;;;;;;;;4937967;28;20039;-78
2021/09/11 06:45:26;;;;;;;25.33;11.23;;;;;;;;;;4938821;29;20031;-78
2021/09/11 06:47:51;;;;;;;21.88;10.43;;;;;;;;;;4940291;29;20031;-78
2021/09/11 06:50:17;;;;;;;21.08;9.85;;;;;;;;;;4943352;29;20055;-78
2021/09/11 06:52:42;;;;;;;18.17;8.82;;;;;;;;;;4944716;28;20043;-77
2021/09/11 06:55:08;;;;;;;19.45;8.43;;;;;;;;;;4944383;29;20043;-78
2021/09/11 06:57:34;;;;;;;18.45;8.27;;;;;;;;;;4944574;28;20043;-78
2021/09/11 07:00:00;;;;;;;15.50;7.63;;;;;;;;;;4947543;29;20409;-78
2021/09/11 07:02:25;;;;;;;13.68;7.90;;;;;;;;;;4948803;29;20041;-79
2021/09/11 07:04:51;;;;;;;11.68;5.70;;;;;;;;;;4949625;28;20039;-78
2021/09/11 07:07:16;;;;;;;10.40;5.30;;;;;;;;;;4952144;28;20027;-80
2021/09/11 07:09:42;;;;;;;11.13;4.28;;;;;;;;;;4949996;28;20035;-78
2021/09/11 07:12:07;;;;;;;9.75;4.45;;;;;;;;;;4943214;29;20035;-79
2021/09/11 07:14:33;;;;;;;7.72;3.72;;;;;;;;;;4943266;28;20571;-78
2021/09/11 07:16:58;;;;;;;10.70;4.07;;;;;;;;;;4938706;28;20031;-78
2021/09/11 07:19:24;;;;;;;13.95;4.63;;;;;;;;;;4947619;28;20039;-77
2021/09/11 07:21:49;;;;;;;10.73;6.13;;;;;;;;;;4944749;29;20047;-77
2021/09/11 07:24:15;;;;;;;13.13;6.15;;;;;;;;;;4942156;29;20051;-78
2021/09/11 07:26:40;;;;;;;11.30;6.78;;;;;;;;;;4965824;28;20046;-80
2021/09/11 07:29:06;;;;;;;16.00;7.57;;;;;;;;;;4948289;28;20537;-77
2021/09/11 07:31:31;;;;;;;11.52;6.28;;;;;;;;;;4968535;28;20031;-77
2021/09/11 07:33:57;;;;;;;10.85;6.22;;;;;;;;;;4933196;29;20116;-78
2021/09/11 07:36:22;;;;;;;14.25;6.45;;;;;;;;;;4949507;29;20058;-77
2021/09/11 07:38:48;;;;;;;12.48;6.18;;;;;;;;;;4955675;28;20027;-81
2021/09/11 07:41:13;;;;;;;13.52;6.60;;;;;;;;;;4948433;28;20066;-79
2021/09/11 07:43:39;;;;;;;14.43;6.38;;;;;;;;;;4952018;28;20338;-78
2021/09/11 07:46:04;;;;;;;13.35;6.90;;;;;;;;;;4946295;28;20045;-76
2021/09/11 07:48:30;;;;;;;17.42;9.00;;;;;;;;;;4932235;29;20127;-78
2021/09/11 07:50:56;;;;;;;20.00;7.93;;;;;;;;;;4950552;28;20123;-77
2021/09/11 07:53:21;;;;;;;19.30;9.25;;;;;;;;;;4944129;28;20027;-77
2021/09/11 07:55:47;;;;;;;17.80;9.40;;;;;;;;;;4946318;28;20543;-78
2021/09/11 07:58:12;;;;;;;21.17;9.88;;;;;;;;;;4955576;28;20397;-77
2021/09/11 08:00:38;;;;;;;17.70;9.38;;;;;;;;;;4952407;29;20638;-79
2021/09/11 08:03:03;;;;;;;20.23;8.80;;;;;;;;;;4949986;28;20027;-78
2021/09/11 08:05:29;;;;;;;20.75;7.32;;;;;;;;;;4927846;29;20421;-78
2021/09/11 08:07:54;;;;;;;20.33;7.53;;;;;;;;;;4952850;28;20043;-78
2021/09/11 08:10:21;;;;;;;23.00;7.60;;;;;;;;;;4938478;29;20027;-78
2021/09/11 08:12:47;;;;;;;16.77;6.10;;;;;;;;;;4944496;29;20133;-79
2021/09/11 08:15:16;;;;;;;11.63;6.28;;;;;;;;;;4939688;28;22456;-78
2021/09/11 08:17:42;;;;;;;11.02;5.97;;;;;;;;;;4942736;29;20054;-79
2021/09/11 08:20:08;;;;;;;9.55;5.07;;;;;;;;;;4939497;28;20122;-78
2021/09/11 08:22:33;;;;;;;10.80;6.20;;;;;;;;;;4944284;29;20110;-76
2021/09/11 08:24:59;;;;;;;13.18;7.07;;;;;;;;;;4944300;28;20517;-77
2021/09/11 08:27:24;;;;;;;13.68;6.68;;;;;;;;;;4928504;29;20044;-77
2021/09/11 08:29:50;;;;;;;13.75;6.82;;;;;;;;;;4943604;28;20027;-77
2021/09/11 08:32:16;;;;;;;13.07;6.50;;;;;;;;;;4921882;29;20034;-76
2021/09/11 08:34:42;;;;;;;14.35;7.18;;;;;;;;;;4948938;28;20055;-78
2021/09/11 08:37:08;;;;;;;15.32;7.78;;;;;;;;;;4907398;29;20587;-78
2021/09/11 08:39:33;;;;;;;12.07;6.95;;;;;;;;;;4936541;28;20500;-77
2021/09/11 08:42:00;;;;;;;14.85;7.72;;;;;;;;;;4944333;28;20118;-78
2021/09/11 08:44:26;;;;;;;19.40;6.88;;;;;;;;;;4946698;29;20701;-77
2021/09/11 08:46:53;;;;;;;13.48;7.57;;;;;;;;;;4947826;28;20042;-77
2021/09/11 08:49:20;;;;;;;14.70;8.25;;;;;;;;;;4944005;28;20042;-76
2021/09/11 08:51:46;;;;;;;15.90;7.28;;;;;;;;;;4954210;28;20472;-76
2021/09/11 08:54:14;;;;;;;14.02;7.43;;;;;;;;;;4946428;28;20111;-78
2021/09/11 08:56:41;;;;;;;15.70;6.60;;;;;;;;;;4942989;29;20067;-77
2021/09/11 08:59:08;;;;;;;17.77;5.55;;;;;;;;;;4940364;28;20051;-77
2021/09/11 09:01:34;;;;;;;12.90;5.28;;;;;;;;;;4945114;29;20173;-79
2021/09/11 09:03:59;;;;;;;6.88;4.10;;;;;;;;;;4944187;28;20544;-78
2021/09/11 09:06:28;;;;;;;7.65;4.32;;;;;;;;;;4945041;28;20057;-77
2021/09/11 09:09:11;;;;;;;10.02;5.75;;;;;;;;;;4940456;29;20039;-78
2021/09/11 09:11:39;;;;;;;11.98;6.13;;;;;;;;;;4943529;29;20106;-78
2021/09/11 09:14:17;;;;;;;11.25;5.75;;;;;;;;;;4939791;28;20027;-77
2021/09/11 09:16:50;;;;;;;9.13;4.88;;;;;;;;;;4929541;29;20125;-77
2021/09/11 09:19:24;;;;;;;11.82;5.93;;;;;;;;;;4941345;29;20519;-77
2021/09/11 09:21:52;;;;;;;15.50;5.70;;;;;;;;;;4948794;28;20038;-78
2021/09/11 09:24:32;;;;;;;15.85;6.10;;;;;;;;;;4943797;28;20122;-77
2021/09/11 09:27:00;;;;;;;10.73;4.93;;;;;;;;;;4942428;28;20488;-79
2021/09/11 09:29:26;;;;;;;8.13;4.55;;;;;;;;;;4934444;29;20066;-78
2021/09/11 09:31:56;;;;;;;19.67;4.40;;;;;;;;;;4944345;28;20550;-76
2021/09/11 09:34:40;;;;;;;6.30;3.90;;;;;;;;;;4943389;29;20489;-76
2021/09/11 09:37:12;;;;;;;6.40;3.80;;;;;;;;;;4938900;29;20547;-76
2021/09/11 09:39:49;;;;;;;8.02;3.45;;;;;;;;;;4941103;29;20493;-76
2021/09/11 09:42:16;;;;;;;8.25;3.15;;;;;;;;;;4938472;29;20441;-77
2021/09/11 09:44:49;;;;;;;8.70;3.10;;;;;;;;;;4941886;28;20469;-77
2021/09/11 09:47:22;;;;;;;14.55;4.40;;;;;;;;;;4938296;29;20552;-77
2021/09/11 09:50:08;;;;;;;6.28;3.50;;;;;;;;;;4943411;29;20543;-77
2021/09/11 09:52:35;;;;;;;8.90;3.67;;;;;;;;;;4945494;28;20523;-76
2021/09/11 09:55:01;;;;;;;4.72;2.72;;;;;;;;;;4948498;28;20042;-77
2021/09/11 09:57:28;;;;;;;4.63;2.58;;;;;;;;;;4946330;28;20035;-77
2021/09/11 09:59:54;;;;;;;6.32;2.13;;;;;;;;;;4946541;29;20103;-77
2021/09/11 10:02:20;;;;;;;6.10;2.35;;;;;;;;;;4944373;28;20117;-77
2021/09/11 10:04:50;;;;;;;6.90;2.50;;;;;;;;;;4923149;29;20607;-75
2021/09/11 10:07:18;;;;;;;3.08;2.25;;;;;;;;;;4944682;29;20098;-76
2021/09/11 10:09:47;;;;;;;4.30;2.50;;;;;;;;;;4942752;28;20528;-76
2021/09/11 10:12:36;;;;;;;6.28;3.50;;;;;;;;;;4942227;28;20058;-76
2021/09/11 10:15:35;;;;;;;8.38;2.83;;;;;;;;;;4926344;29;20023;-75
2021/09/11 10:18:22;;;;;;;3.30;2.03;;;;;;;;;;4932065;29;20039;-75
2021/09/11 10:21:11;;;;;;;5.25;1.88;;;;;;;;;;4943841;28;20027;-76
2021/09/11 10:23:36;;;;;;;4.50;1.75;;;;;;;;;;4944475;29;20157;-75
2021/09/11 10:26:02;;;;;;;3.03;1.70;;;;;;;;;;4942433;29;20485;-76
2021/09/11 10:28:27;;;;;;;7.22;2.38;;;;;;;;;;4943801;29;20595;-76
2021/09/11 10:31:12;;;;;;;5.57;2.40;;;;;;;;;;4945381;29;20037;-77
2021/09/11 10:33:58;;;;;;;4.00;2.83;;;;;;;;;;4946439;28;20488;-75
2021/09/11 10:36:43;;;;;;;5.93;3.40;;;;;;;;;;4943601;29;20096;-79
2021/09/11 10:39:10;;;;;;;17.70;5.43;;;;;;;;;;4949213;29;20031;-75
2021/09/11 10:41:35;;;;;;;6.13;4.38;;;;;;;;;;4943081;28;20287;-76
2021/09/11 10:44:08;;;;;;;6.78;3.95;;;;;;;;;;4937740;29;20060;-78
2021/09/11 10:46:56;;;;;;;8.45;4.30;;;;;;;;;;4921102;29;20039;-77
2021/09/11 10:49:24;;;;;;;9.30;4.18;;;;;;;;;;4946669;29;20083;-74
2021/09/11 10:52:19;;;;;;;6.75;4.28;;;;;;;;;;4945227;28;20027;-75
2021/09/11 10:54:45;;;;;;;7.35;4.60;;;;;;;;;;4936311;29;20035;-76
2021/09/11 10:57:16;;;;;;;8.02;4.00;;;;;;;;;;4944865;29;20416;-76
2021/09/11 10:59:46;;;;;;;4.65;3.15;;;;;;;;;;4943460;29;20050;-74
2021/09/11 11:02:24;;;;;;;4.35;2.97;;;;;;;;;;4945026;28;20090;-77
2021/09/11 11:04:49;;;;;;;5.40;2.90;;;;;;;;;;4940076;28;20648;-76
2021/09/11 11:07:17;;;;;;;4.05;3.33;;;;;;;;;;4943501;28;20031;-75
2021/09/11 11:09:46;;;;;;;4.68;3.38;;;;;;;;;;4944502;29;20481;-76
2021/09/11 11:12:14;;;;;;;6.88;3.28;;;;;;;;;;4945687;29;20106;-76
2021/09/11 11:14:45;;;;;;;4.07;3.00;;;;;;;;;;4944915;28;20118;-75
2021/09/11 11:17:12;;;;;;;5.43;3.03;;;;;;;;;;4946834;29;20039;-75
2021/09/11 11:19:43;;;;;;;4.18;3.03;;;;;;;;;;4962519;28;20038;-75
2021/09/11 11:22:11;;;;;;;4.30;2.70;;;;;;;;;;4947218;28;20512;-75
2021/09/11 11:24:39;;;;;;;4.38;3.03;;;;;;;;;;4947300;28;20035;-76
2021/09/11 11:27:08;;;;;;;5.68;2.90;;;;;;;;;;4943082;28;20063;-77
2021/09/11 11:29:34;;;;;;;8.00;3.20;;;;;;;;;;4945061;28;20031;-77
2021/09/11 11:32:01;;;;;;;2.92;2.22;;;;;;;;;;4946202;29;20027;-76
2021/09/11 11:34:27;;;;;;;11.07;2.78;;;;;;;;;;4948286;28;20023;-76
2021/09/11 11:36:56;;;;;;;3.95;2.85;;;;;;;;;;4945437;28;20039;-76
2021/09/11 11:39:25;;;;;;;4.00;3.33;;;;;;;;;;4945390;28;20110;-76
2021/09/11 11:42:12;;;;;;;4.10;3.40;;;;;;;;;;4951659;28;20090;-77
2021/09/11 11:44:40;;;;;;;2.90;2.60;;;;;;;;;;4937922;29;20024;-75
2021/09/11 11:47:23;;;;;;;6.88;2.90;;;;;;;;;;4946975;28;20050;-75
2021/09/11 11:49:50;;;;;;;2.40;1.80;;;;;;;;;;4943196;29;20687;-76
2021/09/11 11:52:17;;;;;;;6.78;1.70;;;;;;;;;;4948497;29;20048;-78
2021/09/11 11:54:44;;;;;;;2.10;1.60;;;;;;;;;;4948745;28;20027;-77
2021/09/11 11:57:19;;;;;;;4.10;1.20;;;;;;;;;;4948568;29;20030;-77
2021/09/11 11:59:57;;;;;;;1.77;1.30;;;;;;;;;;4946255;29;20052;-76
2021/09/11 12:02:26;;;;;;;3.17;1.70;;;;;;;;;;4947412;29;20031;-78
2021/09/11 12:04:54;;;;;;;2.90;1.83;;;;;;;;;;4951101;28;20453;-78
2021/09/11 12:07:30;;;;;;;3.22;1.80;;;;;;;;;;4944328;29;20039;-77
2021/09/11 12:10:00;;;;;;;2.72;2.08;;;;;;;;;;4946870;29;20736;-78
2021/09/11 12:12:28;;;;;;;2.10;1.67;;;;;;;;;;4947416;28;20473;-76
2021/09/11 12:14:53;;;;;;;2.00;1.50;;;;;;;;;;4945768;28;20056;-76
2021/09/11 12:17:19;;;;;;;2.28;2.00;;;;;;;;;;4942032;29;20043;-77
2021/09/11 12:19:44;;;;;;;4.28;1.80;;;;;;;;;;4948651;28;20417;-76
2021/09/11 12:22:22;;;;;;;5.15;2.35;;;;;;;;;;4945376;29;20035;-76
2021/09/11 12:24:59;;;;;;;9.10;1.90;;;;;;;;;;4948946;29;20051;-76
2021/09/11 12:27:28;;;;;;;2.83;1.65;;;;;;;;;;4948476;28;20032;-77
2021/09/11 12:30:07;;;;;;;3.17;1.27;;;;;;;;;;4947730;29;20027;-77
2021/09/11 12:32:33;;;;;;;1.10;1.00;;;;;;;;;;4948886;29;20023;-78
2021/09/11 12:35:07;;;;;;;2.97;1.05;;;;;;;;;;4940798;28;20038;-77
2021/09/11 12:37:53;;;;;;;2.00;0.60;;;;;;;;;;4936425;28;20494;-77
2021/09/11 12:40:19;;;;;;;1.58;0.60;;;;;;;;;;4942427;29;20026;-79
2021/09/11 12:42:45;;;;;;;0.88;0.40;;;;;;;;;;4942745;28;20023;-77
2021/09/11 12:45:11;;;;;;;0.70;0.65;;;;;;;;;;4944042;29;20557;-79
2021/09/11 12:47:36;;;;;;;2.45;0.80;;;;;;;;;;4932851;29;20520;-79
2021/09/11 12:50:03;;;;;;;2.55;0.90;;;;;;;;;;4927227;29;20042;-77
2021/09/11 12:52:29;;;;;;;1.25;0.82;;;;;;;;;;4943487;28;20030;-78
2021/09/11 12:54:54;;;;;;;1.80;0.98;;;;;;;;;;4939537;28;20039;-77
2021/09/11 12:57:20;;;;;;;2.53;0.77;;;;;;;;;;4932463;29;20039;-77
2021/09/11 12:59:45;;;;;;;1.45;0.93;;;;;;;;;;4945370;28;20059;-79
2021/09/11 13:02:11;;;;;;;0.70;0.70;;;;;;;;;;4926529;29;20047;-77
2021/09/11 13:04:36;;;;;;;6.47;1.15;;;;;;;;;;4942843;29;20047;-77
2021/09/11 13:07:02;;;;;;;0.70;0.70;;;;;;;;;;4932755;29;20035;-78
2021/09/11 13:09:27;;;;;;;1.00;0.80;;;;;;;;;;4933748;29;20037;-77
2021/09/11 13:11:53;;;;;;;3.13;0.98;;;;;;;;;;4940649;28;20042;-77
2021/09/11 13:14:18;;;;;;;2.03;1.23;;;;;;;;;;4942193;28;20062;-78
2021/09/11 13:16:44;;;;;;;1.00;0.90;;;;;;;;;;4949928;28;20405;-80
2021/09/11 13:19:11;;;;;;;1.80;1.02;;;;;;;;;;4950605;28;20110;-79
2021/09/11 13:21:39;;;;;;;3.38;1.02;;;;;;;;;;4947570;29;20031;-78
2021/09/11 13:24:05;;;;;;;4.95;1.10;;;;;;;;;;4945782;28;20728;-77
2021/09/11 13:26:31;;;;;;;6.88;1.48;;;;;;;;;;4944519;28;20453;-76
2021/09/11 13:28:58;;;;;;;4.55;1.40;;;;;;;;;;4945974;29;20202;-78
2021/09/11 13:31:24;;;;;;;2.42;1.50;;;;;;;;;;4928016;29;20031;-79
2021/09/11 13:33:51;;;;;;;1.50;1.00;;;;;;;;;;4946758;28;20031;-78
2021/09/11 13:36:23;;;;;;;2.38;0.93;;;;;;;;;;4944678;28;20040;-80
2021/09/11 13:38:50;;;;;;;4.40;0.80;;;;;;;;;;4950490;28;20034;-78
2021/09/11 13:41:17;;;;;;;2.67;1.30;;;;;;;;;;4931724;29;20035;-79
2021/09/11 13:43:42;;;;;;;1.55;1.00;;;;;;;;;;4944921;29;20035;-76
2021/09/11 13:46:08;;;;;;;3.35;0.90;;;;;;;;;;4945954;28;20046;-79
2021/09/11 13:48:33;;;;;;;5.85;1.00;;;;;;;;;;4945850;28;20055;-77
2021/09/11 13:50:59;;;;;;;3.00;0.77;;;;;;;;;;4959108;28;20381;-78
2021/09/11 13:53:24;;;;;;;2.08;0.90;;;;;;;;;;4948001;28;20039;-77
2021/09/11 13:55:52;;;;;;;2.67;0.73;;;;;;;;;;4946151;28;20031;-77
2021/09/11 13:58:17;;;;;;;6.55;0.82;;;;;;;;;;4946782;28;20037;-77
2021/09/11 14:00:43;;;;;;;3.33;0.70;;;;;;;;;;4944952;28;20047;-77
2021/09/11 14:03:08;;;;;;;3.42;0.90;;;;;;;;;;4946622;29;20044;-78
2021/09/11 14:05:34;;;;;;;2.17;0.47;;;;;;;;;;4948269;28;20042;-76
2021/09/11 14:08:00;;;;;;;2.70;0.82;;;;;;;;;;4942628;29;20069;-77
2021/09/11 14:10:25;;;;;;;2.95;0.55;;;;;;;;;;4940747;28;20031;-77
2021/09/11 14:12:51;;;;;;;1.23;0.80;;;;;;;;;;4917350;29;20072;-79
2021/09/11 14:15:19;;;;;;;1.60;0.70;;;;;;;;;;4946001;29;20027;-77
2021/09/11 14:17:48;;;;;;;3.08;0.77;;;;;;;;;;4940741;28;20042;-77
2021/09/11 14:20:14;;;;;;;2.33;0.50;;;;;;;;;;4945065;29;20051;-77
2021/09/11 14:22:44;;;;;;;4.78;0.80;;;;;;;;;;4946538;29;20122;-77
2021/09/11 14:25:11;;;;;;;1.23;0.57;;;;;;;;;;4945976;29;20064;-76
2021/09/11 14:27:36;;;;;;;2.55;1.38;;;;;;;;;;4948573;28;20035;-76
2021/09/11 14:30:08;;;;;;;4.32;1.08;;;;;;;;;;4946048;28;20134;-77
2021/09/11 14:32:35;;;;;;;1.92;0.98;;;;;;;;;;4949149;28;20034;-77
2021/09/11 14:35:02;;;;;;;4.05;1.10;;;;;;;;;;4947761;29;20196;-76
2021/09/11 14:37:27;;;;;;;2.75;1.30;;;;;;;;;;4943520;28;20106;-77